createdAt,value
2019-03-27T00:02:18.704Z,100.00
2019-03-27T00:04:47.169Z,100.00
2019-03-27T00:07:15.651Z,99.79
2019-03-27T00:09:44.113Z,99.81
2019-03-27T00:12:12.606Z,99.65
2019-03-27T00:14:41.070Z,99.50
2019-03-27T00:17:09.549Z,99.92
2019-03-27T00:19:38.012Z,99.49
2019-03-27T00:22:06.566Z,99.13
2019-03-27T00:24:35.024Z,99.75
2019-03-27T00:27:03.516Z,100.00
2019-03-27T00:29:31.985Z,100.00
2019-03-27T00:32:00.469Z,100.00
2019-03-27T00:34:29.002Z,100.00
2019-03-27T00:36:57.493Z,100.00
2019-03-27T00:39:25.961Z,100.00
2019-03-27T00:41:54.443Z,100.00
2019-03-27T00:44:22.913Z,100.00
2019-03-27T00:46:51.404Z,100.00
2019-03-27T00:49:19.875Z,100.00
2019-03-27T00:51:48.369Z,100.00
2019-03-27T00:54:16.836Z,100.00
2019-03-27T00:56:45.336Z,100.00
2019-03-27T00:59:13.866Z,100.00
2019-03-27T01:01:42.353Z,100.00
2019-03-27T01:04:10.819Z,100.00
2019-03-27T01:06:39.309Z,100.00
2019-03-27T01:09:07.772Z,100.00
2019-03-27T01:11:36.270Z,100.00
2019-03-27T01:14:04.804Z,100.00
2019-03-27T01:16:33.300Z,100.00
2019-03-27T01:19:01.760Z,100.00
2019-03-27T01:21:30.251Z,100.00
2019-03-27T01:23:58.716Z,100.00
2019-03-27T01:26:27.246Z,100.00
2019-03-27T01:28:55.670Z,100.00
2019-03-27T01:31:24.167Z,100.00
2019-03-27T01:33:52.642Z,100.00
2019-03-27T01:36:21.130Z,100.00
2019-03-27T01:38:49.596Z,100.00
2019-03-27T01:41:18.088Z,100.00
2019-03-27T01:43:46.555Z,100.00
2019-03-27T01:46:15.050Z,100.00
2019-03-27T01:48:43.520Z,100.00
2019-03-27T01:51:12.010Z,100.00
2019-03-27T01:53:40.482Z,100.00
2019-03-27T01:56:08.976Z,100.00
2019-03-27T01:58:37.450Z,100.00
2019-03-27T02:01:05.981Z,100.00
2019-03-27T02:03:34.478Z,100.00
2019-03-27T02:06:02.954Z,100.00
2019-03-27T02:08:31.923Z,100.00
2019-03-27T02:11:00.394Z,100.00
2019-03-27T02:13:28.885Z,100.00
2019-03-27T02:16:06.803Z,100.00
2019-03-27T02:18:27.575Z,100.00
2019-03-27T02:20:56.040Z,100.00
2019-03-27T02:23:24.538Z,100.00
2019-03-27T02:25:53.003Z,100.00
2019-03-27T02:28:21.500Z,100.00
2019-03-27T02:30:49.970Z,100.00
2019-03-27T02:33:18.468Z,100.00
2019-03-27T02:35:46.945Z,100.00
2019-03-27T02:38:15.443Z,100.00
2019-03-27T02:40:43.913Z,100.00
2019-03-27T02:43:12.414Z,100.00
2019-03-27T02:45:40.895Z,100.00
2019-03-27T02:48:09.399Z,100.00
2019-03-27T02:50:37.865Z,100.00
2019-03-27T02:53:06.367Z,100.00
2019-03-27T02:55:34.840Z,100.00
2019-03-27T02:58:03.342Z,100.00
2019-03-27T03:00:32.090Z,100.00
2019-03-27T03:03:00.593Z,100.00
2019-03-27T03:05:29.058Z,100.00
2019-03-27T03:07:57.557Z,100.00
2019-03-27T03:10:26.038Z,100.00
2019-03-27T03:12:54.536Z,100.00
2019-03-27T03:15:27.476Z,100.00
2019-03-27T03:17:55.982Z,100.00
2019-03-27T03:20:24.445Z,100.00
2019-03-27T03:22:52.948Z,100.00
2019-03-27T03:25:21.426Z,100.00
2019-03-27T03:27:49.921Z,100.00
2019-03-27T03:30:18.463Z,100.00
2019-03-27T03:32:46.959Z,100.00
2019-03-27T03:35:15.565Z,100.00
2019-03-27T03:37:44.057Z,100.00
2019-03-27T03:40:13.870Z,100.00
2019-03-27T03:42:42.364Z,100.00
2019-03-27T03:45:11.437Z,100.00
2019-03-27T03:47:39.947Z,100.00
2019-03-27T03:50:10.305Z,100.00
2019-03-27T03:52:39.066Z,100.00
2019-03-27T03:55:07.672Z,100.00
2019-03-27T03:57:37.453Z,100.00
2019-03-27T04:00:07.956Z,100.00
2019-03-27T04:02:37.521Z,100.00
2019-03-27T04:05:07.336Z,100.00
2019-03-27T04:07:35.830Z,100.00
2019-03-27T04:10:05.342Z,100.00
2019-03-27T04:12:33.834Z,100.00
2019-03-27T04:15:02.326Z,100.00
2019-03-27T04:17:30.820Z,100.00
2019-03-27T04:19:59.308Z,100.00
2019-03-27T04:22:27.790Z,100.00
2019-03-27T04:24:56.261Z,100.00
2019-03-27T04:27:24.759Z,100.00
2019-03-27T04:29:53.214Z,100.00
2019-03-27T04:32:21.729Z,100.00
2019-03-27T04:34:50.187Z,100.00
2019-03-27T04:37:18.654Z,100.00
2019-03-27T04:39:47.173Z,100.00
2019-03-27T04:42:15.617Z,100.00
2019-03-27T04:44:44.116Z,100.00
2019-03-27T04:47:12.599Z,100.00
2019-03-27T04:49:41.083Z,100.00
2019-03-27T04:52:09.553Z,100.00
2019-03-27T04:54:38.055Z,100.00
2019-03-27T04:57:06.518Z,100.00
2019-03-27T04:59:35.024Z,100.00
2019-03-27T05:02:06.493Z,100.00
2019-03-27T05:04:33.729Z,100.00
2019-03-27T05:07:02.207Z,100.00
2019-03-27T05:09:30.704Z,100.00
2019-03-27T05:11:59.448Z,100.00
2019-03-27T05:14:27.948Z,100.00
2019-03-27T05:16:56.495Z,100.00
2019-03-27T05:19:24.988Z,100.00
2019-03-27T05:21:53.466Z,100.00
2019-03-27T05:24:21.959Z,100.00
2019-03-27T05:26:50.434Z,100.00
2019-03-27T05:29:18.952Z,100.00
2019-03-27T05:31:47.425Z,100.00
2019-03-27T05:34:15.934Z,100.00
2019-03-27T05:36:44.429Z,100.00
2019-03-27T05:39:14.544Z,100.00
2019-03-27T05:41:43.287Z,100.00
2019-03-27T05:44:11.778Z,100.00
2019-03-27T05:46:40.251Z,100.00
2019-03-27T05:49:08.751Z,100.00
2019-03-27T05:51:37.233Z,100.00
2019-03-27T05:54:05.726Z,100.00
2019-03-27T05:56:34.208Z,100.00
2019-03-27T05:59:02.706Z,100.00
2019-03-27T06:01:31.180Z,100.00
2019-03-27T06:03:59.694Z,100.00
2019-03-27T06:06:28.174Z,100.00
2019-03-27T06:08:56.675Z,100.00
2019-03-27T06:11:25.154Z,100.00
2019-03-27T06:13:53.658Z,100.00
2019-03-27T06:16:22.129Z,100.00
2019-03-27T06:18:50.636Z,100.00
2019-03-27T06:21:19.116Z,100.00
2019-03-27T06:23:47.615Z,100.00
2019-03-27T06:26:16.084Z,100.00
2019-03-27T06:28:44.578Z,100.00
2019-03-27T06:31:13.050Z,100.00
2019-03-27T06:33:41.551Z,100.00
2019-03-27T06:36:10.094Z,100.00
2019-03-27T06:38:38.591Z,100.00
2019-03-27T06:41:07.288Z,100.00
2019-03-27T06:43:35.782Z,100.00
2019-03-27T06:46:04.335Z,100.00
2019-03-27T06:48:32.830Z,100.00
2019-03-27T06:51:01.303Z,100.00
2019-03-27T06:53:29.806Z,100.00
2019-03-27T06:55:58.275Z,100.00
2019-03-27T06:58:26.747Z,100.00
2019-03-27T07:00:55.253Z,100.00
2019-03-27T07:03:23.731Z,100.00
2019-03-27T07:05:52.224Z,100.00
2019-03-27T07:08:20.698Z,100.00
2019-03-27T07:10:49.194Z,100.00
2019-03-27T07:13:17.674Z,100.00
2019-03-27T07:15:46.213Z,100.00
2019-03-27T07:18:14.675Z,100.00
2019-03-27T07:20:43.176Z,100.00
2019-03-27T07:23:11.656Z,100.00
2019-03-27T07:25:40.158Z,100.00
2019-03-27T07:28:08.611Z,98.76
2019-03-27T07:30:37.115Z,100.00
2019-03-27T07:33:05.595Z,100.00
2019-03-27T07:35:34.087Z,100.00
2019-03-27T07:38:02.562Z,99.78
2019-03-27T07:40:31.050Z,99.66
2019-03-27T07:42:59.518Z,99.70
2019-03-27T07:45:28.029Z,98.06
2019-03-27T07:47:56.502Z,98.11
2019-03-27T07:50:25.001Z,97.99
2019-03-27T07:52:53.467Z,98.15
2019-03-27T07:55:21.967Z,96.61
2019-03-27T07:57:50.424Z,95.15
2019-03-27T08:00:21.929Z,95.86
2019-03-27T08:02:50.489Z,94.84
2019-03-27T08:05:18.981Z,94.29
2019-03-27T08:07:47.444Z,95.23
2019-03-27T08:10:16.074Z,93.79
2019-03-27T08:12:44.545Z,92.80
2019-03-27T08:15:13.592Z,91.83
2019-03-27T08:17:42.119Z,90.69
2019-03-27T08:20:11.266Z,89.05
2019-03-27T08:22:39.734Z,89.73
2019-03-27T08:25:09.171Z,87.77
2019-03-27T08:27:37.641Z,90.47
2019-03-27T08:30:09.176Z,90.00
2019-03-27T08:32:37.718Z,88.17
2019-03-27T08:35:08.056Z,88.53
2019-03-27T08:37:36.680Z,87.70
2019-03-27T08:40:07.484Z,87.70
2019-03-27T08:42:36.863Z,86.08
2019-03-27T08:45:08.800Z,84.37
2019-03-27T08:47:37.268Z,83.77
2019-03-27T08:50:06.598Z,84.44
2019-03-27T08:52:35.060Z,84.98
2019-03-27T08:55:05.085Z,82.79
2019-03-27T08:57:33.552Z,82.69
2019-03-27T09:00:02.832Z,79.43
2019-03-27T09:02:31.432Z,78.49
2019-03-27T09:04:59.925Z,76.85
2019-03-27T09:07:28.404Z,76.96
2019-03-27T09:09:56.898Z,79.94
2019-03-27T09:12:25.360Z,81.63
2019-03-27T09:14:53.854Z,81.19
2019-03-27T09:17:22.322Z,81.55
2019-03-27T09:19:50.813Z,77.91
2019-03-27T09:22:19.276Z,74.71
2019-03-27T09:24:47.774Z,72.53
2019-03-27T09:27:16.244Z,72.42
2019-03-27T09:29:44.740Z,74.47
2019-03-27T09:32:13.216Z,76.39
2019-03-27T09:34:41.704Z,77.53
2019-03-27T09:37:10.181Z,78.81
2019-03-27T09:39:38.638Z,80.02
2019-03-27T09:42:07.141Z,77.19
2019-03-27T09:44:35.614Z,74.31
2019-03-27T09:47:04.106Z,72.23
2019-03-27T09:49:32.576Z,71.82
2019-03-27T09:52:01.070Z,78.42
2019-03-27T09:54:29.540Z,79.13
2019-03-27T09:56:58.031Z,82.14
2019-03-27T09:59:26.506Z,79.17
2019-03-27T10:01:55.016Z,81.51
2019-03-27T10:04:23.481Z,79.32
2019-03-27T10:06:51.971Z,81.20
2019-03-27T10:09:20.442Z,84.06
2019-03-27T10:11:48.936Z,84.68
2019-03-27T10:14:17.402Z,83.76
2019-03-27T10:16:45.894Z,83.00
2019-03-27T10:19:14.368Z,83.35
2019-03-27T10:21:42.859Z,79.86
2019-03-27T10:24:11.331Z,79.87
2019-03-27T10:26:42.508Z,78.92
2019-03-27T10:29:10.020Z,77.07
2019-03-27T10:31:39.651Z,78.18
2019-03-27T10:34:08.124Z,80.28
2019-03-27T10:36:36.630Z,81.69
2019-03-27T10:39:07.384Z,82.44
2019-03-27T10:41:35.881Z,81.63
2019-03-27T10:44:04.424Z,79.87
2019-03-27T10:46:32.923Z,77.33
2019-03-27T10:49:01.384Z,76.36
2019-03-27T10:51:29.882Z,77.63
2019-03-27T10:53:58.350Z,77.86
2019-03-27T10:56:26.847Z,79.01
2019-03-27T10:58:55.322Z,79.34
2019-03-27T11:01:23.807Z,79.53
2019-03-27T11:03:52.283Z,81.06
2019-03-27T11:06:20.769Z,81.93
2019-03-27T11:08:49.235Z,83.29
2019-03-27T11:11:17.736Z,82.61
2019-03-27T11:13:46.202Z,83.81
2019-03-27T11:16:14.695Z,84.98
2019-03-27T11:18:43.167Z,85.29
2019-03-27T11:21:11.660Z,83.79
2019-03-27T11:23:40.131Z,84.79
2019-03-27T11:26:08.639Z,86.64
2019-03-27T11:28:37.095Z,85.84
2019-03-27T11:31:05.667Z,86.82
2019-03-27T11:33:34.195Z,86.95
2019-03-27T11:36:02.665Z,86.39
2019-03-27T11:38:31.123Z,84.99
2019-03-27T11:40:59.629Z,85.95
2019-03-27T11:43:28.099Z,85.21
2019-03-27T11:45:56.592Z,84.26
2019-03-27T11:48:25.066Z,85.49
2019-03-27T11:50:53.561Z,86.25
2019-03-27T11:53:22.030Z,85.65
2019-03-27T11:55:50.527Z,85.82
2019-03-27T11:58:18.998Z,85.17
2019-03-27T12:00:54.492Z,85.82
2019-03-27T12:03:17.685Z,86.65
2019-03-27T12:05:46.157Z,86.22
2019-03-27T12:08:14.650Z,86.37
2019-03-27T12:10:43.133Z,87.45
2019-03-27T12:13:11.637Z,87.96
2019-03-27T12:15:41.741Z,88.79
2019-03-27T12:18:11.486Z,87.38
2019-03-27T12:20:40.130Z,88.75
2019-03-27T12:23:08.692Z,87.82
2019-03-27T12:25:37.258Z,86.27
2019-03-27T12:28:05.900Z,84.05
2019-03-27T12:30:34.436Z,87.02
2019-03-27T12:33:04.596Z,86.16
2019-03-27T12:35:33.075Z,84.89
2019-03-27T12:38:04.262Z,84.83
2019-03-27T12:40:31.792Z,83.48
2019-03-27T12:43:00.266Z,82.75
2019-03-27T12:45:28.805Z,83.02
2019-03-27T12:47:57.323Z,83.04
2019-03-27T12:50:25.807Z,82.60
2019-03-27T12:52:54.299Z,83.55
2019-03-27T12:55:22.780Z,82.81
2019-03-27T12:57:51.282Z,82.78
2019-03-27T13:00:19.976Z,84.19
2019-03-27T13:02:48.538Z,84.00
2019-03-27T13:05:17.011Z,83.67
2019-03-27T13:07:50.165Z,84.12
2019-03-27T13:10:15.776Z,83.12
2019-03-27T13:12:44.334Z,85.25
2019-03-27T13:15:12.945Z,85.72
2019-03-27T13:17:42.304Z,86.45
2019-03-27T13:20:11.527Z,86.44
2019-03-27T13:22:40.005Z,86.75
2019-03-27T13:25:09.425Z,85.45
2019-03-27T13:27:38.349Z,85.05
2019-03-27T13:30:08.467Z,87.19
2019-03-27T13:32:36.962Z,84.58
2019-03-27T13:35:07.078Z,83.92
2019-03-27T13:37:35.637Z,84.89
2019-03-27T13:40:08.357Z,85.72
2019-03-27T13:42:36.855Z,84.48
2019-03-27T13:45:06.827Z,83.09
2019-03-27T13:47:35.593Z,82.43
2019-03-27T13:50:06.782Z,82.81
2019-03-27T13:52:35.278Z,83.33
2019-03-27T13:55:04.787Z,84.39
2019-03-27T13:57:33.294Z,83.03
2019-03-27T14:00:01.760Z,83.73
2019-03-27T14:02:30.261Z,84.30
2019-03-27T14:04:58.759Z,85.20
2019-03-27T14:07:27.250Z,83.68
2019-03-27T14:09:55.727Z,83.80
2019-03-27T14:12:24.221Z,83.50
2019-03-27T14:14:52.703Z,82.71
2019-03-27T14:17:21.197Z,82.33
2019-03-27T14:19:49.674Z,82.46
2019-03-27T14:22:18.245Z,82.07
2019-03-27T14:24:46.717Z,83.28
2019-03-27T14:27:15.220Z,82.29
2019-03-27T14:29:44.889Z,83.12
2019-03-27T14:32:13.773Z,81.45
2019-03-27T14:34:42.417Z,82.07
2019-03-27T14:37:11.008Z,81.63
2019-03-27T14:39:39.471Z,83.81
2019-03-27T14:42:08.039Z,84.14
2019-03-27T14:44:36.588Z,82.58
2019-03-27T14:47:05.129Z,83.31
2019-03-27T14:49:33.625Z,84.03
2019-03-27T14:52:08.277Z,83.42
2019-03-27T14:54:32.336Z,81.56
2019-03-27T14:57:00.802Z,83.18
2019-03-27T14:59:29.397Z,83.09
2019-03-27T15:01:57.868Z,83.20
2019-03-27T15:04:26.360Z,82.95
2019-03-27T15:06:55.033Z,83.14
2019-03-27T15:09:23.696Z,83.65
2019-03-27T15:11:52.185Z,84.48
2019-03-27T15:14:20.678Z,85.09
2019-03-27T15:16:49.148Z,85.80
2019-03-27T15:19:17.643Z,85.45
2019-03-27T15:21:46.117Z,85.02
2019-03-27T15:24:14.616Z,85.31
2019-03-27T15:26:43.088Z,85.68
2019-03-27T15:29:11.579Z,85.25
2019-03-27T15:31:40.058Z,84.00
2019-03-27T15:34:08.550Z,84.44
2019-03-27T15:36:37.024Z,83.47
2019-03-27T15:39:07.062Z,83.83
2019-03-27T15:41:35.534Z,83.23
2019-03-27T15:44:04.037Z,83.39
2019-03-27T15:46:32.574Z,82.97
2019-03-27T15:49:01.060Z,82.91
2019-03-27T15:51:29.539Z,83.25
2019-03-27T15:53:58.125Z,83.32
2019-03-27T15:56:26.602Z,81.80
2019-03-27T15:58:56.348Z,82.18
2019-03-27T16:01:24.955Z,81.51
2019-03-27T16:03:53.450Z,79.74
2019-03-27T16:06:22.048Z,78.41
2019-03-27T16:08:50.555Z,77.21
2019-03-27T16:11:19.122Z,80.64
2019-03-27T16:13:47.616Z,80.93
2019-03-27T16:16:16.155Z,80.20
2019-03-27T16:18:44.717Z,80.64
2019-03-27T16:21:13.190Z,78.66
2019-03-27T16:23:41.690Z,79.36
2019-03-27T16:26:10.158Z,79.20
2019-03-27T16:28:38.658Z,80.06
2019-03-27T16:31:07.127Z,80.38
2019-03-27T16:33:35.628Z,80.95
2019-03-27T16:36:04.104Z,81.47
2019-03-27T16:38:32.607Z,81.81
2019-03-27T16:41:01.087Z,83.49
2019-03-27T16:43:29.589Z,84.01
2019-03-27T16:45:58.058Z,83.90
2019-03-27T16:48:26.548Z,83.84
2019-03-27T16:50:55.024Z,84.87
2019-03-27T16:53:23.524Z,85.86
2019-03-27T16:55:52.143Z,85.46
2019-03-27T16:58:20.646Z,85.78
2019-03-27T17:00:49.120Z,86.70
2019-03-27T17:03:17.690Z,86.26
2019-03-27T17:05:53.927Z,86.74
2019-03-27T17:08:16.544Z,86.44
2019-03-27T17:10:45.083Z,87.23
2019-03-27T17:13:13.566Z,86.91
2019-03-27T17:15:42.067Z,87.42
2019-03-27T17:18:10.551Z,86.90
2019-03-27T17:20:39.140Z,87.20
2019-03-27T17:23:18.173Z,87.73
2019-03-27T17:25:38.102Z,87.34
2019-03-27T17:28:06.625Z,86.79
2019-03-27T17:30:35.201Z,87.47
2019-03-27T17:33:05.401Z,88.31
2019-03-27T17:35:33.924Z,88.57
2019-03-27T17:38:02.466Z,88.90
2019-03-27T17:40:31.065Z,89.15
2019-03-27T17:42:59.629Z,88.83
2019-03-27T17:45:28.136Z,89.41
2019-03-27T17:47:56.628Z,89.66
2019-03-27T17:50:25.128Z,89.88
2019-03-27T17:52:53.605Z,90.46
2019-03-27T17:55:22.124Z,89.88
2019-03-27T17:57:50.642Z,89.71
2019-03-27T18:00:23.845Z,89.58
2019-03-27T18:02:52.324Z,89.67
2019-03-27T18:05:20.835Z,89.96
2019-03-27T18:07:49.322Z,89.61
2019-03-27T18:10:17.840Z,90.00
2019-03-27T18:12:46.317Z,90.19
2019-03-27T18:15:14.985Z,90.31
2019-03-27T18:17:43.453Z,89.90
2019-03-27T18:20:12.203Z,89.79
2019-03-27T18:22:40.856Z,89.94
2019-03-27T18:25:09.710Z,90.13
2019-03-27T18:27:38.341Z,90.54
2019-03-27T18:30:08.084Z,91.18
2019-03-27T18:32:36.792Z,92.75
2019-03-27T18:35:08.012Z,93.56
2019-03-27T18:37:36.597Z,94.64
2019-03-27T18:40:07.029Z,94.54
2019-03-27T18:42:35.509Z,94.50
2019-03-27T18:45:06.180Z,95.01
2019-03-27T18:47:36.425Z,94.67
2019-03-27T18:50:09.288Z,95.51
2019-03-27T18:52:37.762Z,95.32
2019-03-27T18:55:07.890Z,95.13
2019-03-27T18:57:36.368Z,94.00
2019-03-27T19:00:07.174Z,94.17
2019-03-27T19:02:35.722Z,93.94
2019-03-27T19:05:08.451Z,93.26
2019-03-27T19:07:36.919Z,92.51
2019-03-27T19:10:06.939Z,92.47
2019-03-27T19:12:35.419Z,92.45
2019-03-27T19:15:06.273Z,91.61
2019-03-27T19:17:34.755Z,91.84
2019-03-27T19:20:04.664Z,91.79
2019-03-27T19:22:33.120Z,91.72
2019-03-27T19:25:01.633Z,92.76
2019-03-27T19:27:30.122Z,93.17
2019-03-27T19:29:58.697Z,92.89
2019-03-27T19:32:27.274Z,93.99
2019-03-27T19:34:55.780Z,92.98
2019-03-27T19:37:24.248Z,92.58
2019-03-27T19:39:52.766Z,93.06
2019-03-27T19:42:21.245Z,92.55
2019-03-27T19:44:51.397Z,92.47
2019-03-27T19:47:19.883Z,91.78
2019-03-27T19:49:48.387Z,90.74
2019-03-27T19:52:16.867Z,91.59
2019-03-27T19:54:45.400Z,91.81
2019-03-27T19:57:13.910Z,92.24
2019-03-27T19:59:42.403Z,93.26
2019-03-27T20:02:11.615Z,92.95
2019-03-27T20:04:40.266Z,91.87
2019-03-27T20:07:08.802Z,91.48
2019-03-27T20:09:37.310Z,91.17
2019-03-27T20:12:05.803Z,90.87
2019-03-27T20:14:34.293Z,91.59
2019-03-27T20:17:02.806Z,91.81
2019-03-27T20:19:31.695Z,92.59
2019-03-27T20:22:00.207Z,93.38
2019-03-27T20:24:40.522Z,93.02
2019-03-27T20:27:00.561Z,93.66
2019-03-27T20:29:29.098Z,94.25
2019-03-27T20:31:57.623Z,95.22
2019-03-27T20:34:26.121Z,95.37
2019-03-27T20:36:54.625Z,94.83
2019-03-27T20:39:23.187Z,94.33
2019-03-27T20:41:51.728Z,94.59
2019-03-27T20:44:20.220Z,94.24
2019-03-27T20:46:48.739Z,94.43
2019-03-27T20:49:17.225Z,94.27
2019-03-27T20:51:45.731Z,94.46
2019-03-27T20:54:14.339Z,93.33
2019-03-27T20:56:42.875Z,93.19
2019-03-27T20:59:11.838Z,92.40
2019-03-27T21:01:40.341Z,92.61
2019-03-27T21:04:08.929Z,92.66
2019-03-27T21:06:37.441Z,92.15
2019-03-27T21:09:06.412Z,92.91
2019-03-27T21:11:34.963Z,93.28
2019-03-27T21:14:03.489Z,92.56
2019-03-27T21:16:34.504Z,93.29
2019-03-27T21:19:03.070Z,93.53
2019-03-27T21:21:31.595Z,94.54
2019-03-27T21:24:00.072Z,94.98
2019-03-27T21:26:28.614Z,94.17
2019-03-27T21:28:57.140Z,94.20
2019-03-27T21:31:25.656Z,94.21
2019-03-27T21:33:57.526Z,95.11
2019-03-27T21:36:24.455Z,93.84
2019-03-27T21:38:54.373Z,93.60
2019-03-27T21:41:22.888Z,92.90
2019-03-27T21:43:52.137Z,93.37
2019-03-27T21:46:20.639Z,94.30
2019-03-27T21:48:49.125Z,95.75
2019-03-27T21:51:17.628Z,95.90
2019-03-27T21:53:50.632Z,95.67
2019-03-27T21:56:16.346Z,96.14
2019-03-27T21:58:44.833Z,94.97
2019-03-27T22:01:13.341Z,95.56
2019-03-27T22:03:41.815Z,96.21
2019-03-27T22:06:10.457Z,96.92
2019-03-27T22:08:38.940Z,96.51
2019-03-27T22:11:07.445Z,96.42
2019-03-27T22:13:35.922Z,96.50
2019-03-27T22:16:04.511Z,97.14
2019-03-27T22:18:32.988Z,97.44
2019-03-27T22:21:01.495Z,98.51
2019-03-27T22:23:29.971Z,98.46
2019-03-27T22:25:58.489Z,98.60
2019-03-27T22:28:26.965Z,98.58
2019-03-27T22:30:55.479Z,97.95
2019-03-27T22:33:23.961Z,97.98
2019-03-27T22:35:52.478Z,98.30
2019-03-27T22:38:20.958Z,97.89
2019-03-27T22:40:49.486Z,97.47
2019-03-27T22:43:17.972Z,98.36
2019-03-27T22:45:46.423Z,97.98
2019-03-27T22:48:14.937Z,98.27
2019-03-27T22:50:43.420Z,97.96
2019-03-27T22:53:11.941Z,98.42
2019-03-27T22:55:49.531Z,98.75
2019-03-27T22:58:13.048Z,98.60
2019-03-27T23:00:48.042Z,97.99
2019-03-27T23:03:18.481Z,97.69
2019-03-27T23:05:46.870Z,98.46
2019-03-27T23:08:15.436Z,97.54
2019-03-27T23:10:43.926Z,97.45
2019-03-27T23:13:12.492Z,98.24
2019-03-27T23:15:41.040Z,97.33
2019-03-27T23:18:09.539Z,96.91
2019-03-27T23:20:38.168Z,97.41
2019-03-27T23:23:06.690Z,97.44
2019-03-27T23:25:35.167Z,97.15
2019-03-27T23:28:03.674Z,97.62
2019-03-27T23:30:32.213Z,97.56
2019-03-27T23:33:00.715Z,98.12
2019-03-27T23:35:29.195Z,98.16
2019-03-27T23:37:57.696Z,98.58
2019-03-27T23:40:26.198Z,98.20
2019-03-27T23:42:54.694Z,98.51
2019-03-27T23:45:23.168Z,98.26
2019-03-27T23:47:51.669Z,97.37
2019-03-27T23:50:20.145Z,96.71
2019-03-27T23:52:48.660Z,96.85
2019-03-27T23:55:17.136Z,97.55
2019-03-27T23:57:45.642Z,97.62
